createdAt,value
2019-05-12T00:01:09.551Z,2.80
2019-05-12T00:03:43.703Z,2.47
2019-05-12T00:06:17.987Z,2.87
2019-05-12T00:08:52.330Z,2.10
2019-05-12T00:11:28.728Z,2.80
2019-05-12T00:14:02.784Z,3.17
2019-05-12T00:16:38.428Z,2.40
2019-05-12T00:19:11.836Z,2.20
2019-05-12T00:21:45.546Z,2.43
2019-05-12T00:24:22.109Z,2.83
2019-05-12T00:26:58.037Z,2.70
2019-05-12T00:29:31.875Z,2.70
2019-05-12T00:32:05.515Z,5.03
2019-05-12T00:34:39.266Z,2.50
2019-05-12T00:37:13.272Z,3.07
2019-05-12T00:39:47.836Z,2.53
2019-05-12T00:42:21.733Z,2.77
2019-05-12T00:44:58.552Z,3.40
2019-05-12T00:47:32.348Z,3.20
2019-05-12T00:50:08.126Z,2.70
2019-05-12T00:52:41.366Z,3.30
2019-05-12T00:55:15.219Z,2.53
2019-05-12T00:57:49.051Z,2.33
2019-05-12T01:00:23.209Z,2.50
2019-05-12T01:02:58.057Z,2.77
2019-05-12T01:05:32.765Z,2.70
2019-05-12T01:08:08.915Z,2.80
2019-05-12T01:10:42.360Z,2.03
2019-05-12T01:13:18.644Z,2.53
2019-05-12T01:15:52.937Z,2.63
2019-05-12T01:18:28.003Z,2.93
2019-05-12T01:21:02.880Z,3.07
2019-05-12T01:23:51.911Z,2.63
2019-05-12T01:26:14.632Z,2.80
2019-05-12T01:28:48.936Z,3.53
2019-05-12T01:31:24.362Z,2.70
2019-05-12T01:33:58.717Z,2.83
2019-05-12T01:36:32.941Z,2.20
2019-05-12T01:39:09.823Z,2.60
2019-05-12T01:41:43.971Z,3.10
2019-05-12T01:44:18.443Z,2.40
2019-05-12T01:46:52.249Z,2.53
2019-05-12T01:49:25.935Z,2.50
2019-05-12T01:52:00.134Z,2.43
2019-05-12T01:54:35.552Z,2.57
2019-05-12T01:57:09.521Z,3.77
2019-05-12T01:59:44.915Z,2.70
2019-05-12T02:02:20.075Z,2.73
2019-05-12T02:05:10.163Z,2.03
2019-05-12T02:07:52.340Z,2.70
2019-05-12T02:10:28.648Z,2.33
2019-05-12T02:13:02.968Z,3.40
2019-05-12T02:15:38.511Z,2.77
2019-05-12T02:18:13.523Z,3.90
2019-05-12T02:20:48.321Z,2.40
2019-05-12T02:23:22.321Z,2.87
2019-05-12T02:25:55.967Z,2.73
2019-05-12T02:28:29.850Z,2.60
2019-05-12T02:31:05.033Z,2.77
2019-05-12T02:33:38.897Z,2.53
2019-05-12T02:36:15.055Z,2.77
2019-05-12T02:38:48.566Z,2.70
2019-05-12T02:41:25.675Z,2.53
2019-05-12T02:43:58.067Z,2.43
2019-05-12T02:46:34.883Z,2.63
2019-05-12T02:49:07.513Z,3.00
2019-05-12T02:51:41.569Z,2.30
2019-05-12T02:54:18.392Z,2.50
2019-05-12T02:56:55.136Z,2.60
2019-05-12T02:59:34.698Z,2.40
2019-05-12T03:02:16.324Z,3.33
2019-05-12T03:04:54.792Z,2.87
2019-05-12T03:07:34.425Z,2.80
2019-05-12T03:10:09.420Z,3.50
2019-05-12T03:12:45.251Z,4.30
2019-05-12T03:15:19.040Z,2.70
2019-05-12T03:17:54.628Z,3.00
2019-05-12T03:20:29.041Z,2.93
2019-05-12T03:23:06.876Z,2.77
2019-05-12T03:25:41.227Z,3.13
2019-05-12T03:28:16.278Z,2.90
2019-05-12T03:30:57.586Z,3.37
2019-05-12T03:33:40.592Z,2.90
2019-05-12T03:36:08.899Z,3.60
2019-05-12T03:38:44.760Z,3.60
2019-05-12T03:41:19.341Z,3.37
2019-05-12T03:43:55.010Z,3.30
2019-05-12T03:46:29.905Z,3.00
2019-05-12T03:49:05.360Z,3.60
2019-05-12T03:51:41.320Z,3.47
2019-05-12T03:54:15.524Z,3.63
2019-05-12T03:56:49.782Z,3.93
2019-05-12T03:59:25.580Z,3.07
2019-05-12T04:02:00.102Z,4.47
2019-05-12T04:04:34.968Z,3.53
2019-05-12T04:07:08.786Z,3.90
2019-05-12T04:09:46.980Z,3.90
2019-05-12T04:12:20.640Z,3.10
2019-05-12T04:14:55.191Z,4.00
2019-05-12T04:17:29.686Z,3.63
2019-05-12T04:20:05.869Z,2.77
2019-05-12T04:22:39.601Z,3.00
2019-05-12T04:25:14.632Z,2.73
2019-05-12T04:27:48.750Z,3.60
2019-05-12T04:30:25.447Z,3.03
2019-05-12T04:33:00.785Z,3.50
2019-05-12T04:35:35.411Z,2.43
2019-05-12T04:38:09.718Z,2.23
2019-05-12T04:40:45.258Z,3.03
2019-05-12T04:43:19.486Z,2.67
2019-05-12T04:45:54.943Z,2.47
2019-05-12T04:48:29.107Z,2.77
2019-05-12T04:51:05.014Z,2.70
2019-05-12T04:53:38.304Z,2.57
2019-05-12T04:56:24.749Z,2.37
2019-05-12T04:58:57.830Z,2.43
2019-05-12T05:01:34.679Z,2.80
2019-05-12T05:04:08.709Z,2.13
2019-05-12T05:06:44.986Z,2.27
2019-05-12T05:09:24.578Z,2.87
2019-05-12T05:11:57.571Z,2.10
2019-05-12T05:14:33.860Z,2.33
2019-05-12T05:17:08.667Z,2.10
2019-05-12T05:19:44.212Z,2.33
2019-05-12T05:22:18.022Z,2.40
2019-05-12T05:24:53.607Z,2.10
2019-05-12T05:27:27.469Z,2.87
2019-05-12T05:30:03.951Z,1.90
2019-05-12T05:32:38.676Z,1.80
2019-05-12T05:35:15.049Z,2.40
2019-05-12T05:37:48.697Z,1.50
2019-05-12T05:40:25.967Z,1.83
2019-05-12T05:42:57.881Z,2.17
2019-05-12T05:45:31.789Z,2.60
2019-05-12T05:48:10.072Z,1.77
2019-05-12T05:50:43.833Z,2.10
2019-05-12T05:53:19.731Z,2.10
2019-05-12T05:56:00.095Z,2.40
2019-05-12T05:58:33.916Z,2.00
2019-05-12T06:01:08.271Z,1.90
2019-05-12T06:03:44.134Z,2.27
2019-05-12T06:06:17.728Z,2.20
2019-05-12T06:09:00.950Z,2.87
2019-05-12T06:11:35.003Z,2.20
2019-05-12T06:14:14.059Z,1.90
2019-05-12T06:16:44.146Z,1.80
2019-05-12T06:19:17.773Z,1.87
2019-05-12T06:21:53.403Z,1.70
2019-05-12T06:24:26.951Z,1.93
2019-05-12T06:27:00.950Z,1.93
2019-05-12T06:29:35.945Z,1.97
2019-05-12T06:32:11.005Z,2.03
2019-05-12T06:34:45.066Z,2.03
2019-05-12T06:37:18.823Z,2.20
2019-05-12T06:39:56.475Z,1.67
2019-05-12T06:42:29.765Z,1.57
2019-05-12T06:45:04.899Z,1.60
2019-05-12T06:47:39.492Z,1.70
2019-05-12T06:50:17.042Z,1.77
2019-05-12T06:52:52.758Z,1.57
2019-05-12T06:55:28.668Z,1.90
2019-05-12T06:58:04.668Z,1.33
2019-05-12T07:00:39.266Z,1.67
2019-05-12T07:03:14.253Z,2.50
2019-05-12T07:05:49.636Z,1.77
2019-05-12T07:08:29.961Z,1.50
2019-05-12T07:11:05.930Z,1.33
2019-05-12T07:13:38.314Z,1.70
2019-05-12T07:16:23.244Z,1.60
2019-05-12T07:18:54.224Z,1.10
2019-05-12T07:21:30.656Z,1.50
2019-05-12T07:24:09.603Z,2.50
2019-05-12T07:26:41.526Z,1.60
2019-05-12T07:29:15.701Z,2.00
2019-05-12T07:32:16.442Z,1.53
2019-05-12T07:34:45.367Z,1.60
2019-05-12T07:37:23.175Z,1.40
2019-05-12T07:39:58.275Z,1.47
2019-05-12T07:42:39.328Z,1.70
2019-05-12T07:45:20.036Z,1.57
2019-05-12T07:47:49.976Z,1.27
2019-05-12T07:50:27.348Z,1.27
2019-05-12T07:53:04.108Z,1.93
2019-05-12T07:55:39.612Z,1.40
2019-05-12T07:58:18.499Z,1.37
2019-05-12T08:00:53.966Z,1.60
2019-05-12T08:03:27.464Z,1.40
2019-05-12T08:06:04.493Z,1.30
2019-05-12T08:08:41.935Z,1.70
2019-05-12T08:11:14.955Z,1.90
2019-05-12T08:13:51.110Z,1.20
2019-05-12T08:16:29.717Z,1.10
2019-05-12T08:19:00.767Z,1.70
2019-05-12T08:21:43.550Z,1.50
2019-05-12T08:24:14.316Z,1.37
2019-05-12T08:26:49.578Z,1.13
2019-05-12T08:29:25.326Z,1.20
2019-05-12T08:32:00.432Z,1.30
2019-05-12T08:34:35.368Z,1.67
2019-05-12T08:37:09.531Z,1.43
2019-05-12T08:39:44.605Z,1.20
2019-05-12T08:42:18.688Z,1.30
2019-05-12T08:44:54.223Z,1.03
2019-05-12T08:47:29.037Z,1.37
2019-05-12T08:50:04.857Z,1.00
2019-05-12T08:52:41.943Z,0.90
2019-05-12T08:55:25.069Z,1.23
2019-05-12T08:57:54.747Z,1.07
2019-05-12T09:00:45.434Z,1.07
2019-05-12T09:03:14.406Z,1.20
2019-05-12T09:05:50.317Z,1.20
2019-05-12T09:08:24.456Z,1.20
2019-05-12T09:10:58.758Z,1.17
2019-05-12T09:13:33.948Z,1.00
2019-05-12T09:16:09.805Z,0.90
2019-05-12T09:18:45.929Z,1.40
2019-05-12T09:21:23.668Z,1.10
2019-05-12T09:23:56.852Z,1.20
2019-05-12T09:26:34.193Z,1.00
2019-05-12T09:29:07.611Z,0.83
2019-05-12T09:31:43.911Z,1.40
2019-05-12T09:34:17.583Z,1.20
2019-05-12T09:36:59.473Z,0.90
2019-05-12T09:39:28.130Z,1.50
2019-05-12T09:42:03.779Z,1.10
2019-05-12T09:44:41.158Z,2.90
2019-05-12T09:47:23.294Z,1.07
2019-05-12T09:49:50.231Z,1.60
2019-05-12T09:52:27.300Z,0.80
2019-05-12T09:55:01.159Z,1.10
2019-05-12T09:57:40.607Z,1.10
2019-05-12T10:00:13.596Z,0.87
2019-05-12T10:02:51.189Z,1.40
2019-05-12T10:05:21.989Z,1.13
2019-05-12T10:07:55.795Z,1.30
2019-05-12T10:10:35.455Z,1.20
2019-05-12T10:13:07.112Z,1.17
2019-05-12T10:15:42.744Z,1.50
2019-05-12T10:18:16.531Z,2.13
2019-05-12T10:20:50.218Z,1.20
2019-05-12T10:23:27.275Z,1.10
2019-05-12T10:26:01.492Z,1.20
2019-05-12T10:28:36.602Z,1.13
2019-05-12T10:31:13.853Z,2.43
2019-05-12T10:33:48.895Z,1.40
2019-05-12T10:36:23.340Z,1.10
2019-05-12T10:38:59.589Z,1.40
2019-05-12T10:41:34.232Z,0.97
2019-05-12T10:44:09.674Z,1.00
2019-05-12T10:46:44.075Z,0.90
2019-05-12T10:49:17.800Z,1.20
2019-05-12T10:51:53.887Z,0.80
2019-05-12T10:54:27.848Z,1.13
2019-05-12T10:57:04.742Z,0.97
2019-05-12T10:59:38.915Z,0.87
2019-05-12T11:02:14.514Z,1.10
2019-05-12T11:04:48.473Z,1.03
2019-05-12T11:07:22.907Z,1.30
2019-05-12T11:10:05.642Z,0.80
2019-05-12T11:12:35.380Z,0.90
2019-05-12T11:15:13.642Z,2.27
2019-05-12T11:18:04.896Z,1.00
2019-05-12T11:20:40.617Z,1.13
2019-05-12T11:23:14.754Z,1.13
2019-05-12T11:25:48.550Z,1.20
2019-05-12T11:28:24.414Z,0.87
2019-05-12T11:30:59.564Z,1.27
2019-05-12T11:33:35.201Z,1.00
2019-05-12T11:36:13.529Z,1.13
2019-05-12T11:38:48.982Z,0.80
2019-05-12T11:41:28.380Z,1.00
2019-05-12T11:44:00.607Z,0.80
2019-05-12T11:46:36.410Z,1.10
2019-05-12T11:49:13.847Z,1.33
2019-05-12T11:51:49.305Z,0.70
2019-05-12T11:54:24.237Z,0.77
2019-05-12T11:56:59.987Z,0.70
2019-05-12T11:59:35.916Z,0.73
2019-05-12T12:02:10.647Z,1.10
2019-05-12T12:04:48.444Z,0.90
2019-05-12T12:07:24.443Z,1.00
2019-05-12T12:09:59.569Z,1.03
2019-05-12T12:12:34.607Z,1.07
2019-05-12T12:15:10.526Z,0.90
2019-05-12T12:17:44.335Z,1.33
2019-05-12T12:20:22.401Z,0.80
2019-05-12T12:23:00.200Z,1.00
2019-05-12T12:25:34.232Z,1.17
2019-05-12T12:28:07.947Z,1.00
2019-05-12T12:30:47.238Z,1.00
2019-05-12T12:33:19.588Z,0.70
2019-05-12T12:35:56.586Z,0.90
2019-05-12T12:38:29.094Z,1.00
2019-05-12T12:41:06.985Z,1.40
2019-05-12T12:43:43.191Z,0.90
2019-05-12T12:49:29.317Z,1.30
2019-05-12T12:52:03.364Z,1.33
2019-05-12T12:54:39.144Z,0.73
2019-05-12T12:57:13.704Z,0.80
2019-05-12T12:59:51.223Z,0.80
2019-05-12T13:02:24.751Z,0.73
2019-05-12T13:04:58.771Z,0.90
2019-05-12T13:07:33.413Z,1.20
2019-05-12T13:10:09.637Z,0.93
2019-05-12T13:12:43.955Z,0.97
2019-05-12T13:15:21.001Z,1.00
2019-05-12T13:17:54.050Z,1.27
2019-05-12T13:20:28.552Z,0.67
2019-05-12T13:23:04.136Z,1.10
2019-05-12T13:25:38.864Z,1.00
2019-05-12T13:28:19.060Z,1.60
2019-05-12T13:30:54.008Z,1.60
2019-05-12T13:33:27.358Z,1.00
2019-05-12T13:36:04.145Z,0.90
2019-05-12T13:38:40.961Z,0.90
2019-05-12T13:41:19.749Z,1.13
2019-05-12T13:43:56.150Z,1.13
2019-05-12T13:46:27.454Z,1.17
2019-05-12T13:49:03.198Z,0.53
2019-05-12T13:51:37.102Z,0.90
2019-05-12T13:54:14.222Z,0.90
2019-05-12T13:56:47.476Z,0.70
2019-05-12T13:59:25.234Z,0.90
2019-05-12T14:01:56.587Z,0.80
2019-05-12T14:04:30.936Z,0.90
2019-05-12T14:07:09.355Z,1.10
2019-05-12T14:09:43.721Z,0.73
2019-05-12T14:12:17.983Z,1.17
2019-05-12T14:14:52.691Z,0.87
2019-05-12T14:17:31.127Z,0.80
2019-05-12T14:20:04.034Z,1.20
2019-05-12T14:22:41.778Z,0.77
2019-05-12T14:25:20.903Z,1.00
2019-05-12T14:27:54.030Z,0.70
2019-05-12T14:30:27.849Z,1.10
2019-05-12T14:33:03.434Z,1.00
2019-05-12T14:35:40.860Z,1.07
2019-05-12T14:38:34.026Z,0.80
2019-05-12T14:41:11.727Z,0.50
2019-05-12T14:43:48.056Z,0.80
2019-05-12T14:46:24.241Z,0.97
2019-05-12T14:49:03.493Z,0.83
2019-05-12T14:51:36.837Z,1.10
2019-05-12T14:54:13.684Z,0.87
2019-05-12T14:56:55.724Z,0.93
2019-05-12T14:59:24.424Z,1.00
2019-05-12T15:01:59.689Z,0.80
2019-05-12T15:04:34.880Z,0.93
2019-05-12T15:07:10.187Z,1.10
2019-05-12T15:09:45.692Z,0.60
2019-05-12T15:12:21.093Z,1.20
2019-05-12T15:14:54.800Z,0.70
2019-05-12T15:17:29.987Z,1.10
2019-05-12T15:20:06.509Z,1.00
2019-05-12T15:22:48.141Z,1.20
2019-05-12T15:25:14.886Z,1.40
2019-05-12T15:27:48.839Z,1.37
2019-05-12T15:30:26.494Z,2.03
2019-05-12T15:32:58.842Z,1.80
2019-05-12T15:35:34.417Z,1.60
2019-05-12T15:38:09.375Z,1.57
2019-05-12T15:40:43.976Z,1.53
2019-05-12T15:43:20.905Z,1.67
2019-05-12T15:45:59.366Z,1.50
2019-05-12T15:48:34.261Z,1.10
2019-05-12T15:51:09.004Z,1.60
2019-05-12T15:53:45.287Z,1.10
2019-05-12T15:56:23.048Z,1.10
2019-05-12T15:59:00.844Z,1.20
2019-05-12T16:01:33.480Z,1.27
2019-05-12T16:04:11.825Z,1.20
2019-05-12T16:06:53.354Z,1.30
2019-05-12T16:09:21.260Z,1.10
2019-05-12T16:11:56.400Z,1.10
2019-05-12T16:14:36.041Z,2.00
2019-05-12T16:17:06.728Z,1.33
2019-05-12T16:19:40.525Z,1.50
2019-05-12T16:22:14.216Z,2.10
2019-05-12T16:24:50.500Z,1.93
2019-05-12T16:27:33.125Z,3.40
2019-05-12T16:30:00.292Z,2.37
2019-05-12T16:32:43.158Z,1.23
2019-05-12T16:35:09.912Z,1.17
2019-05-12T16:37:44.540Z,1.43
2019-05-12T16:40:18.556Z,1.10
2019-05-12T16:42:59.349Z,1.27
2019-05-12T16:45:29.347Z,0.90
2019-05-12T16:48:05.476Z,1.30
2019-05-12T16:50:39.156Z,1.40
2019-05-12T16:53:21.349Z,1.00
2019-05-12T16:55:50.024Z,1.10
2019-05-12T16:58:32.591Z,1.27
2019-05-12T17:01:00.829Z,1.27
2019-05-12T17:03:34.392Z,1.13
2019-05-12T17:06:11.187Z,1.00
2019-05-12T17:08:45.538Z,1.50
2019-05-12T17:11:27.223Z,1.23
2019-05-12T17:14:01.343Z,1.23
2019-05-12T17:16:33.707Z,1.03
2019-05-12T17:19:10.345Z,1.50
2019-05-12T17:21:49.445Z,1.13
2019-05-12T17:24:20.782Z,1.53
2019-05-12T17:26:54.861Z,1.47
2019-05-12T17:29:33.521Z,1.00
2019-05-12T17:32:07.788Z,1.37
2019-05-12T17:34:45.846Z,1.20
2019-05-12T17:37:19.172Z,0.77
2019-05-12T17:39:53.294Z,1.07
2019-05-12T17:42:30.013Z,1.17
2019-05-12T17:45:09.521Z,1.10
2019-05-12T17:47:44.521Z,1.03
2019-05-12T17:50:20.913Z,0.97
2019-05-12T17:52:59.309Z,1.23
2019-05-12T17:55:31.462Z,0.80
2019-05-12T17:58:05.822Z,1.07
2019-05-12T18:00:47.586Z,0.93
2019-05-12T18:03:22.170Z,1.13
2019-05-12T18:05:55.696Z,0.80
2019-05-12T18:08:34.975Z,0.90
2019-05-12T18:11:11.359Z,1.00
2019-05-12T18:13:46.692Z,1.13
2019-05-12T18:16:24.418Z,1.43
2019-05-12T18:18:56.290Z,1.00
2019-05-12T18:21:34.047Z,0.97
2019-05-12T18:24:11.032Z,1.07
2019-05-12T18:26:48.707Z,1.00
2019-05-12T18:29:23.654Z,0.93
2019-05-12T18:32:01.646Z,1.00
2019-05-12T18:34:37.335Z,1.00
2019-05-12T18:37:13.437Z,1.20
2019-05-12T18:39:47.325Z,0.90
2019-05-12T18:42:24.548Z,1.30
2019-05-12T18:45:04.625Z,0.80
2019-05-12T18:47:37.075Z,0.83
2019-05-12T18:50:14.035Z,1.67
2019-05-12T18:52:48.888Z,0.97
2019-05-12T18:55:29.182Z,0.77
2019-05-12T18:58:04.322Z,0.83
2019-05-12T19:01:03.368Z,1.00
2019-05-12T19:03:47.890Z,4.70
2019-05-12T19:06:14.280Z,5.57
2019-05-12T19:08:49.023Z,4.53
2019-05-12T19:11:31.740Z,4.53
2019-05-12T19:14:01.039Z,3.50
2019-05-12T19:16:35.748Z,2.50
2019-05-12T19:19:14.793Z,1.03
2019-05-12T19:21:46.846Z,1.47
2019-05-12T19:24:22.131Z,1.00
2019-05-12T19:26:55.769Z,0.80
2019-05-12T19:29:38.654Z,0.93
2019-05-12T19:32:06.023Z,0.87
2019-05-12T19:34:40.077Z,1.03
2019-05-12T19:37:14.342Z,0.80
2019-05-12T19:39:54.937Z,0.60
2019-05-12T19:42:28.756Z,0.70
2019-05-12T19:45:07.008Z,0.93
2019-05-12T19:47:39.516Z,0.80
2019-05-12T19:50:18.404Z,0.70
2019-05-12T19:52:53.436Z,0.80
2019-05-12T19:55:28.228Z,0.60
2019-05-12T19:58:10.481Z,1.10
2019-05-12T20:00:38.502Z,0.73
2019-05-12T20:03:13.998Z,1.00
2019-05-12T20:05:50.365Z,0.93
2019-05-12T20:08:24.284Z,1.00
2019-05-12T20:11:00.350Z,1.07
2019-05-12T20:13:36.008Z,1.20
2019-05-12T20:16:11.478Z,0.90
2019-05-12T20:18:49.160Z,1.00
2019-05-12T20:21:26.052Z,0.90
2019-05-12T20:23:58.771Z,1.00
2019-05-12T20:26:32.995Z,1.47
2019-05-12T20:29:08.324Z,1.53
2019-05-12T20:31:44.333Z,1.17
2019-05-12T20:34:20.642Z,1.00
2019-05-12T20:36:59.154Z,0.83
2019-05-12T20:39:32.007Z,1.20
2019-05-12T20:42:08.240Z,1.30
2019-05-12T20:44:43.696Z,1.03
2019-05-12T20:47:17.810Z,1.20
2019-05-12T20:49:52.846Z,1.10
2019-05-12T20:52:28.743Z,1.40
2019-05-12T20:55:03.646Z,1.50
2019-05-12T20:57:40.057Z,1.10
2019-05-12T21:00:45.589Z,1.23
2019-05-12T21:03:19.226Z,1.40
2019-05-12T21:05:58.130Z,1.40
2019-05-12T21:08:29.051Z,1.17
2019-05-12T21:11:02.989Z,1.10
2019-05-12T21:13:36.782Z,0.93
2019-05-12T21:16:17.449Z,1.60
2019-05-12T21:18:50.685Z,2.13
2019-05-12T21:21:27.618Z,1.10
2019-05-12T21:23:59.558Z,1.30
2019-05-12T21:26:34.654Z,1.20
2019-05-12T21:29:09.430Z,1.60
2019-05-12T21:31:44.575Z,1.67
2019-05-12T21:34:21.257Z,1.40
2019-05-12T21:36:59.054Z,1.80
2019-05-12T21:39:29.350Z,1.40
2019-05-12T21:42:04.878Z,1.13
2019-05-12T21:44:41.466Z,1.40
2019-05-12T21:47:14.388Z,1.77
2019-05-12T21:49:52.916Z,1.20
2019-05-12T21:52:23.934Z,1.57
2019-05-12T21:54:59.385Z,1.80
2019-05-12T21:57:34.645Z,1.90
2019-05-12T22:00:20.163Z,1.90
2019-05-12T22:02:56.596Z,1.50
2019-05-12T22:05:48.170Z,1.30
2019-05-12T22:08:17.695Z,1.93
2019-05-12T22:10:43.745Z,1.70
2019-05-12T22:13:19.336Z,2.00
2019-05-12T22:15:57.051Z,1.80
2019-05-12T22:18:33.369Z,1.60
2019-05-12T22:21:08.850Z,1.83
2019-05-12T22:23:50.999Z,1.73
2019-05-12T22:26:19.158Z,1.70
2019-05-12T22:28:54.654Z,1.83
2019-05-12T22:31:30.235Z,2.37
2019-05-12T22:34:04.187Z,1.60
2019-05-12T22:36:39.320Z,1.93
2019-05-12T22:39:14.308Z,2.00
2019-05-12T22:41:48.180Z,2.33
2019-05-12T22:44:24.872Z,2.03
2019-05-12T22:47:04.218Z,2.10
2019-05-12T22:49:34.049Z,2.13
2019-05-12T22:52:07.889Z,2.23
2019-05-12T22:54:46.892Z,2.17
2019-05-12T22:57:17.342Z,1.70
2019-05-12T22:59:53.220Z,1.40
2019-05-12T23:02:29.949Z,1.93
2019-05-12T23:05:03.573Z,2.10
2019-05-12T23:07:37.346Z,2.07
2019-05-12T23:10:14.190Z,2.27
2019-05-12T23:12:50.241Z,1.83
2019-05-12T23:15:24.306Z,2.50
2019-05-12T23:17:57.771Z,2.10
2019-05-12T23:20:35.633Z,2.00
2019-05-12T23:23:14.166Z,1.87
2019-05-12T23:25:44.320Z,1.50
2019-05-12T23:28:18.486Z,2.30
2019-05-12T23:30:53.587Z,2.00
2019-05-12T23:33:31.710Z,2.40
2019-05-12T23:36:04.023Z,2.10
2019-05-12T23:38:39.054Z,2.00
2019-05-12T23:41:13.586Z,1.43
2019-05-12T23:43:47.748Z,2.00
2019-05-12T23:46:23.609Z,1.27
2019-05-12T23:48:58.207Z,1.43
2019-05-12T23:51:34.064Z,1.80
2019-05-12T23:54:07.825Z,1.83
2019-05-12T23:56:41.486Z,1.87
2019-05-12T23:59:15.280Z,1.63
